Terminal Aerodrome Forecast
Issued by NWS

Home | Current Version | Previous Version | Text Only | Print | Product List | Glossary On
Versions: 1 2 3 4 5 6 7 8 9 10 11 12 13 14 15 16 17 18 19 20 21 22
000
FTUS46 KMTR 271200 AAA
TAFOAK
TAF AMD
KOAK 271240Z 2713/2818 33006KT P6SM FEW010 SCT015
      TEMPO 2713/2716 BKN015
     FM271700 31010KT P6SM FEW012 SCT022 BKN150
     FM272000 28015G20KT P6SM BKN025 BKN100
     FM272200 28020G30KT P6SM SCT025 BKN100
     FM280800 27015G25KT P6SM SCT015 BKN025
     FM281200 29010KT P6SM SCT015 BKN025=

USA.gov is the U.S. government's official web portal to all federal, state and local government web resources and services.